메인 페이지
METAR-TAF:

METAR-TAF

공항 :

두바이 국제공항

두바이, 아랍에미리트

위도: 25-15-10N, 경도: 055-21-52E, 고도: 8m

현재 날씨관측

예보는 36분 전, 10:00시(UTC)에 발표되었습니다.
북북서11kt
온도 31°C
습도 38%
기압 1015 hPa
시정 10km 이상
1500m 미만 상공 구름 및 적란운 없음

METAR: OMDB 161000Z 34011KT CAVOK 31/15 Q1015 NOSIG

시각: 14:36 (10:36 UTC)

예보

예보는 5 시간 37분 전, 04:59시(UTC)에 발표되었습니다.
예보 대상 시간: 16일 06시부터 17일 12시까지 (UTC)
남남동8kt
시정: 8000m
전환 중
16일 09시부터 16일 11시까지 (UTC)
북북서12kt
전환 중
16일 14시부터 16일 16시까지 (UTC)
5kt
전환 중
17일 06시부터 17일 08시까지 (UTC)
북서12kt

TAF: OMDB 160459Z 1606/1712 16008KT 8000 NSC BECMG 1609/1611 34012KT BECMG 1614/1616 08005KT BECMG 1706/1708 32012KT

4,000개 이상의 공항 관측 자료 및 예보 (METAR 및 TAF 보고).

지도상에서 검색 가능한 기상관측소가 노란 점과 빨간 점으로 표시되어 있습니다.

기상관측소 명을 보려면 표시 위로 마우스를 이동하세요.

날씨 관측과 예보를 보려면 클릭하세요.

지도 변경 : 확대하려면 엑스 표시가 있는 녹색 버튼, 축소하려면 빼기 표시가 있는 녹색 버튼, 다음 페이지의 지도를 보려면 녹색 화살표를 클릭하세요.


METAR-TAF: